In Rescue
 
Open Full Screen Window  High Contrast Mode
Wind Gusting 00 knots
07
January 22, 2020 5:32 PM EST
Weather Information
Wind Direction
  190 °
Wind Speed
  07 kt (8 mph)
Wind Gust
  00 kt (0 mph)
Altimeter
30.29 in
Visibility
10 SM
Temperature
00° C
32° F
Dewpoint
-05° C
23° F
Humidity
69%
Sky Condition
Clear
VFR

METAR KFSO 222232Z AUTO 19007KT 10SM CLR 00/M05 A3029 RMK AO2 T00021053

FAA Disclaimer: The data displayed is for advisory purposes only and is not to be used for flight planning or operations.